Government of Jersey

Home Log in

METAR EGJJ 280850Z 28020G32KT 9999 VCSH FEW019CB SCT023 06/03 Q1001

METAR EGJB 280850Z 28017KT 9999 FEW020CB 06/01 Q1002

METAR EGJA 280850Z 28022G32KT 9999 FEW015 FEW017CB SCT031 06/01 Q1000

METAR LFRD 280900Z AUTO 24012KT 9999 FEW021 SCT039 05/03 Q1005 TEMPO 25025G40KT 3000 SHRAGS BKN013CB

METAR LFRC 280900Z AUTO 26013KT 9999 FEW018/// BKN046/// ///TCU 02/01 Q1001 TEMPO 25030G55KT 2000 TSRAGS BKN012CB